METAR Data
IDs: Format: Raw Decoded Include TAF

Data at: 0409 UTC 20 Oct 2018

PAGY 200353Z AUTO 21026G40KT 10SM SCT055 BKN075 BKN090 09/08 A2962 RMK AO2 PK WND 22042/0338 RAE01 SLP032 P0000 T00940083 TSNO
PAGY 200253Z AUTO 21028G36KT 10SM -RA BKN050 OVC070 09/08 A2963 RMK AO2 PK WND 21037/0241 SLP033 P0001 60017 T00890083 58014 TSNO
PAGY 200153Z AUTO 20017G29KT 4SM -RA BR FEW018 SCT026 OVC034 09/08 A2967 RMK AO2 PK WND 21029/0151 SLP047 P0013 T00890083 TSNO
PAGY 200053Z AUTO 20014G29KT 10SM -RA BKN055 OVC075 10/08 A2968 RMK AO2 PK WND 22029/0044 SLP049 P0003 T01000083 TSNO
PAGY 192353Z AUTO 20016G21KT 3SM -RA BKN044 BKN055 OVC070 09/07 A2967 RMK AO2 PK WND 21034/2341 RAB39 SLP047 P0001 60026 T00940067 10106 20061 53014 TSNO
PAGY 192253Z AUTO 20015G21KT 10SM FEW033 SCT070 BKN100 10/06 A2965 RMK AO2 PK WND 21033/2202 RAB01E11 SLP040 P0000 T01000061 TSNO
PAGY 192153Z AUTO 22023G37KT 10SM BKN060 BKN080 10/06 A2963 RMK AO2 PK WND 22037/2144 RAE2057 SLP034 P0000 T01000061 TSNO
PAGY 192053Z AUTO 10SM -RA OVC055 07/06 A2963 RMK AO2 SLP034 P0004 60025 T00720061 56005 TSNO
PAGY 192042Z AUTO 07006KT 9SM -RA SCT012 OVC050 07/06 A2963 RMK AO2 P0003 T00720061 TSNO
PAGY 191953Z AUTO 03007KT 6SM -RA BR OVC013 07/05 A2963 RMK AO2 SLP034 P0012 T00670050 TSNO
PAGY 191938Z AUTO 00000KT 4SM RA BR FEW009 OVC015 06/05 A2964 RMK AO2 P0011 T00610050 TSNO
PAGY 191924Z AUTO 00000KT 2SM RA BR SCT009 OVC019 06/06 A2963 RMK AO2 P0007 T00610056 TSNO
PAGY 191853Z AUTO 00000KT 4SM -RA BR BKN025 BKN043 OVC050 06/06 A2963 RMK AO2 SLP034 P0009 T00610056 TSNO
PAGY 191753Z AUTO 00000KT 4SM RA BR SCT006 BKN043 OVC050 06/06 A2964 RMK AO2 SLP038 P0014 60051 T00610056 10078 20061 55023 TSNO
PAGY 191749Z AUTO 00000KT 3SM RA BR FEW006 OVC045 06/06 A2965 RMK AO2 P0014 TSNO
PAGY 191725Z AUTO 00000KT 2SM RA BR OVC047 06/05 A2964 RMK AO2 P0007 T00610050 TSNO
PAGY 191716Z AUTO 00000KT 3SM RA BR OVC050 06/05 A2963 RMK AO2 P0005 T00610050 TSNO
PAGY 191701Z AUTO 00000KT 2SM RA BR OVC050 06/05 A2964 RMK AO2 P0002 T00610050 TSNO
PAGY 191653Z AUTO 00000KT 3SM RA BR OVC050 06/05 A2964 RMK AO2 PRESFR SLP035 P0013 T00610050 TSNO
PAGY 191553Z AUTO 00000KT 3SM RA BR FEW037 OVC050 06/06 A2968 RMK AO2 SLP050 P0012 T00610056 TSNO
PAGY 191453Z AUTO 00000KT 5SM -RA BR FEW033 OVC047 07/06 A2971 RMK AO2 SLP061 P0005 60012 T00670056 56039 TSNO
PAGY 191353Z AUTO 04004KT 10SM -RA FEW031 OVC041 07/07 A2974 RMK AO2 SLP072 P0005 T00670067 TSNO
PAGY 191253Z AUTO 04003KT 10SM -RA OVC037 07/06 A2979 RMK AO2 SLP089 P0002 T00670061 TSNO
PAGY 191153Z AUTO 07004KT 10SM -RA OVC039 07/06 A2983 RMK AO2 PRESFR SLP100 P0003 60018 70018 T00720056 10078 20072 57048 TSNO
PAGY 191053Z AUTO 02005KT 9SM -RA OVC045 08/06 A2988 RMK AO2 SLP119 P0003 T00780056 TSNO
PAGY 190953Z AUTO 02003KT 9SM -RA OVC034 08/06 A2991 RMK AO2 SLP129 P0003 T00780061 TSNO
PAGY 190853Z AUTO 00000KT 7SM -RA OVC039 07/07 A2997 RMK AO2 SLP148 P0006 60009 T00720067 401110072 56022 TSNO
PAGY 190753Z AUTO 04003KT 9SM -RA OVC043 07/07 A2999 RMK AO2 RAB04 SLP154 P0003 T00720067 TSNO
PAGY 190653Z AUTO 00000KT 10SM BKN065 OVC080 07/06 A3001 RMK AO2 SLP161 T00720061 TSNO
PAGY 190553Z AUTO 00000KT 10SM OVC100 07/06 A3003 RMK AO2 SLP170 T00720061 10100 20072 56030 TSNO
PAGY 190453Z AUTO 04003KT 10SM SCT120 08/06 A3006 RMK AO2 SLP177 T00780061 TSNO
PAGY 190353Z AUTO 00000KT 10SM CLR 08/06 A3008 RMK AO2 SLP187 T00780061 TSNO
PAGY 190253Z AUTO 00000KT 10SM CLR 08/07 A3012 RMK AO2 SLP200 T00830067 56020 TSNO
PAGY 190153Z AUTO 00000KT 10SM FEW049 09/06 A3014 RMK AO2 SLP205 T00890061 TSNO
PAGY 190053Z AUTO 00000KT 10SM OVC060 10/07 A3015 RMK AO2 SLP210 T01000067 TSNO
PAGY 182353Z AUTO 00000KT 10SM SCT036 OVC060 10/07 A3018 RMK AO2 SLP220 60000 T01000067 10111 20089 57001 TSNO
PAGY 182253Z AUTO 29006KT 10SM BKN037 OVC050 10/06 A3018 RMK AO2 SLP219 T01000061 TSNO
PAGY 182153Z AUTO 20011KT 10SM OVC050 11/06 A3018 RMK AO2 SLP221 T01060061 TSNO
PAGY 182053Z AUTO 20012G20KT 10SM OVC050 10/06 A3018 RMK AO2 SLP221 60000 T01000061 50006 TSNO
PAGY 181953Z AUTO 20013KT 10SM OVC050 10/07 A3019 RMK AO2 SLP225 T01000067 TSNO
PAGY 181853Z AUTO 20012KT 10SM OVC050 09/06 A3018 RMK AO2 RAB04E15 SLP219 P0000 T00940061 TSNO
PAGY 181753Z AUTO 20012KT 10SM OVC080 10/06 A3017 RMK AO2 SLP215 T01000061 10100 20089 51015 TSNO
PAGY 181703Z AUTO 20008KT 10SM SCT016 BKN075 09/06 A3015 RMK AO2 T00940061 TSNO
PAGY 181653Z AUTO 00000KT 10SM BKN016 BKN022 BKN075 09/06 A3015 RMK AO2 SLP210 T00890061 TSNO